sensor_id;sensor_type;location;lat;lon;timestamp;pressure;altitude;pressure_sealevel;temperature;humidity
32251;BME280;41295;48.518;9.206;2023-07-22T00:00:36;97196.13;;;16.67;59.93
32251;BME280;41295;48.518;9.206;2023-07-22T00:02:39;97199.22;;;16.74;59.81
32251;BME280;41295;48.518;9.206;2023-07-22T00:04:42;97186.81;;;16.76;59.77
32251;BME280;41295;48.518;9.206;2023-07-22T00:06:44;97185.66;;;16.80;59.73
32251;BME280;41295;48.518;9.206;2023-07-22T00:08:47;97195.44;;;16.78;59.70
32251;BME280;41295;48.518;9.206;2023-07-22T00:10:50;97193.94;;;16.74;59.73
32251;BME280;41295;48.518;9.206;2023-07-22T00:12:54;97195.00;;;16.71;59.73
32251;BME280;41295;48.518;9.206;2023-07-22T00:14:56;97191.53;;;16.71;59.68
32251;BME280;41295;48.518;9.206;2023-07-22T00:16:59;97193.34;;;16.70;59.76
32251;BME280;41295;48.518;9.206;2023-07-22T00:19:02;97196.34;;;16.64;59.72
32251;BME280;41295;48.518;9.206;2023-07-22T00:21:05;97199.38;;;16.58;59.76
32251;BME280;41295;48.518;9.206;2023-07-22T00:23:08;97193.47;;;16.54;60.11
32251;BME280;41295;48.518;9.206;2023-07-22T00:25:12;97196.47;;;16.48;60.29
32251;BME280;41295;48.518;9.206;2023-07-22T00:27:14;97195.91;;;16.43;60.49
32251;BME280;41295;48.518;9.206;2023-07-22T00:29:18;97199.78;;;16.37;60.67
32251;BME280;41295;48.518;9.206;2023-07-22T00:31:21;97190.41;;;16.33;60.67
32251;BME280;41295;48.518;9.206;2023-07-22T00:33:24;97194.16;;;16.29;60.79
32251;BME280;41295;48.518;9.206;2023-07-22T00:35:26;97192.06;;;16.34;60.94
32251;BME280;41295;48.518;9.206;2023-07-22T00:37:28;97185.03;;;16.34;60.81
32251;BME280;41295;48.518;9.206;2023-07-22T00:39:31;97187.19;;;16.28;60.98
32251;BME280;41295;48.518;9.206;2023-07-22T00:41:33;97190.78;;;16.27;61.10
32251;BME280;41295;48.518;9.206;2023-07-22T00:43:36;97184.75;;;16.25;61.07
32251;BME280;41295;48.518;9.206;2023-07-22T00:45:40;97187.13;;;16.29;60.85
32251;BME280;41295;48.518;9.206;2023-07-22T00:47:44;97187.00;;;16.31;60.93
32251;BME280;41295;48.518;9.206;2023-07-22T00:49:47;97191.78;;;16.39;60.61
32251;BME280;41295;48.518;9.206;2023-07-22T00:51:50;97188.03;;;16.43;60.67
32251;BME280;41295;48.518;9.206;2023-07-22T00:53:52;97180.88;;;16.45;60.49
32251;BME280;41295;48.518;9.206;2023-07-22T00:55:55;97182.56;;;16.46;60.50
32251;BME280;41295;48.518;9.206;2023-07-22T00:57:58;97184.06;;;16.50;60.50
32251;BME280;41295;48.518;9.206;2023-07-22T01:00:00;97182.28;;;16.51;60.79
32251;BME280;41295;48.518;9.206;2023-07-22T01:02:05;97185.84;;;16.50;60.53
32251;BME280;41295;48.518;9.206;2023-07-22T01:04:13;97178.69;;;16.52;60.42
32251;BME280;41295;48.518;9.206;2023-07-22T01:06:17;97184.06;;;16.50;60.60
32251;BME280;41295;48.518;9.206;2023-07-22T01:08:21;97175.63;;;16.45;60.72
32251;BME280;41295;48.518;9.206;2023-07-22T01:10:23;97181.81;;;16.44;60.77
32251;BME280;41295;48.518;9.206;2023-07-22T01:12:26;97186.34;;;16.42;60.85
32251;BME280;41295;48.518;9.206;2023-07-22T01:14:28;97172.53;;;16.38;60.87
32251;BME280;41295;48.518;9.206;2023-07-22T01:16:31;97166.63;;;16.34;60.74
32251;BME280;41295;48.518;9.206;2023-07-22T01:18:35;97169.16;;;16.36;61.19
32251;BME280;41295;48.518;9.206;2023-07-22T01:20:38;97171.41;;;16.28;61.28
32251;BME280;41295;48.518;9.206;2023-07-22T01:24:47;97173.69;;;16.19;61.94
32251;BME280;41295;48.518;9.206;2023-07-22T01:26:49;97166.91;;;16.15;62.13
32251;BME280;41295;48.518;9.206;2023-07-22T01:29:02;97168.16;;;16.09;62.55
32251;BME280;41295;48.518;9.206;2023-07-22T01:31:04;97165.53;;;16.09;62.56
32251;BME280;41295;48.518;9.206;2023-07-22T01:33:07;97165.63;;;16.08;62.44
32251;BME280;41295;48.518;9.206;2023-07-22T01:35:10;97165.53;;;16.09;62.46
32251;BME280;41295;48.518;9.206;2023-07-22T01:37:12;97161.94;;;16.10;62.32
32251;BME280;41295;48.518;9.206;2023-07-22T01:39:14;97164.00;;;16.05;62.50
32251;BME280;41295;48.518;9.206;2023-07-22T01:41:18;97160.06;;;16.13;62.33
32251;BME280;41295;48.518;9.206;2023-07-22T01:43:19;97159.31;;;16.10;62.40
32251;BME280;41295;48.518;9.206;2023-07-22T01:45:22;97159.88;;;16.16;62.25
32251;BME280;41295;48.518;9.206;2023-07-22T01:47:25;97158.94;;;16.17;61.77
32251;BME280;41295;48.518;9.206;2023-07-22T01:49:28;97161.94;;;16.10;61.85
32251;BME280;41295;48.518;9.206;2023-07-22T01:51:30;97158.56;;;16.08;62.21
32251;BME280;41295;48.518;9.206;2023-07-22T01:53:33;97159.31;;;16.10;62.33
32251;BME280;41295;48.518;9.206;2023-07-22T01:55:37;97160.63;;;16.03;62.47
32251;BME280;41295;48.518;9.206;2023-07-22T01:57:41;97157.59;;;15.95;62.95
32251;BME280;41295;48.518;9.206;2023-07-22T01:59:44;97159.13;;;15.84;63.35
32251;BME280;41295;48.518;9.206;2023-07-22T02:01:46;97162.19;;;15.77;63.81
32251;BME280;41295;48.518;9.206;2023-07-22T02:03:49;97155.81;;;15.66;64.11
32251;BME280;41295;48.518;9.206;2023-07-22T02:05:51;97166.63;;;15.61;64.12
32251;BME280;41295;48.518;9.206;2023-07-22T02:07:54;97165.53;;;15.49;64.57
32251;BME280;41295;48.518;9.206;2023-07-22T02:09:57;97165.06;;;15.43;65.15
32251;BME280;41295;48.518;9.206;2023-07-22T02:11:59;97168.66;;;15.42;64.93
32251;BME280;41295;48.518;9.206;2023-07-22T02:14:03;97175.50;;;15.44;64.87
32251;BME280;41295;48.518;9.206;2023-07-22T02:16:08;97167.50;;;15.46;64.83
32251;BME280;41295;48.518;9.206;2023-07-22T02:18:13;97174.25;;;15.35;64.57
32251;BME280;41295;48.518;9.206;2023-07-22T02:20:15;97174.00;;;15.40;64.60
32251;BME280;41295;48.518;9.206;2023-07-22T02:22:18;97167.97;;;15.38;64.39
32251;BME280;41295;48.518;9.206;2023-07-22T02:24:22;97178.00;;;15.31;64.64
32251;BME280;41295;48.518;9.206;2023-07-22T02:26:24;97180.88;;;15.26;64.81
32251;BME280;41295;48.518;9.206;2023-07-22T02:28:27;97184.47;;;15.25;64.91
32251;BME280;41295;48.518;9.206;2023-07-22T02:30:33;97181.16;;;15.22;65.35
32251;BME280;41295;48.518;9.206;2023-07-22T02:32:37;97181.41;;;15.17;65.46
32251;BME280;41295;48.518;9.206;2023-07-22T02:34:39;97177.22;;;15.14;65.67
32251;BME280;41295;48.518;9.206;2023-07-22T02:36:42;97182.09;;;15.21;65.75
32251;BME280;41295;48.518;9.206;2023-07-22T02:38:44;97179.97;;;15.27;65.10
32251;BME280;41295;48.518;9.206;2023-07-22T02:40:47;97172.09;;;15.27;65.15
32251;BME280;41295;48.518;9.206;2023-07-22T02:42:50;97179.69;;;15.32;65.04
32251;BME280;41295;48.518;9.206;2023-07-22T02:44:52;97180.16;;;15.39;64.91
32251;BME280;41295;48.518;9.206;2023-07-22T02:46:59;97183.66;;;15.39;64.91
32251;BME280;41295;48.518;9.206;2023-07-22T02:49:01;97185.13;;;15.44;64.84
32251;BME280;41295;48.518;9.206;2023-07-22T02:51:05;97186.09;;;15.43;64.51
32251;BME280;41295;48.518;9.206;2023-07-22T02:53:08;97183.19;;;15.47;64.57
32251;BME280;41295;48.518;9.206;2023-07-22T02:55:14;97187.72;;;15.45;64.38
32251;BME280;41295;48.518;9.206;2023-07-22T02:57:17;97182.88;;;15.37;64.66
32251;BME280;41295;48.518;9.206;2023-07-22T02:59:20;97185.03;;;15.31;65.11
32251;BME280;41295;48.518;9.206;2023-07-22T03:01:22;97186.16;;;15.26;65.08
32251;BME280;41295;48.518;9.206;2023-07-22T03:03:27;97190.19;;;15.32;64.89
32251;BME280;41295;48.518;9.206;2023-07-22T03:05:30;97188.53;;;15.31;64.86
32251;BME280;41295;48.518;9.206;2023-07-22T03:07:34;97184.47;;;15.25;65.29
32251;BME280;41295;48.518;9.206;2023-07-22T03:09:36;97178.44;;;15.23;65.24
32251;BME280;41295;48.518;9.206;2023-07-22T03:11:39;97175.63;;;15.26;65.11
32251;BME280;41295;48.518;9.206;2023-07-22T03:13:41;97167.75;;;15.26;65.09
32251;BME280;41295;48.518;9.206;2023-07-22T03:15:44;97171.06;;;15.30;64.94
32251;BME280;41295;48.518;9.206;2023-07-22T03:17:47;97171.72;;;15.34;65.00
32251;BME280;41295;48.518;9.206;2023-07-22T03:19:51;97177.06;;;15.32;64.95
32251;BME280;41295;48.518;9.206;2023-07-22T03:21:53;97173.97;;;15.25;65.07
32251;BME280;41295;48.518;9.206;2023-07-22T03:23:56;97175.53;;;15.28;65.04
32251;BME280;41295;48.518;9.206;2023-07-22T03:25:59;97174.78;;;15.26;65.08
32251;BME280;41295;48.518;9.206;2023-07-22T03:28:03;97175.72;;;15.25;65.12
32251;BME280;41295;48.518;9.206;2023-07-22T03:30:07;97169.63;;;15.24;65.02
32251;BME280;41295;48.518;9.206;2023-07-22T03:32:12;97171.59;;;15.21;65.25
32251;BME280;41295;48.518;9.206;2023-07-22T03:34:15;97169.16;;;15.18;65.20
32251;BME280;41295;48.518;9.206;2023-07-22T03:36:19;97173.47;;;15.19;65.06
32251;BME280;41295;48.518;9.206;2023-07-22T03:38:21;97170.09;;;15.17;65.20
32251;BME280;41295;48.518;9.206;2023-07-22T03:40:24;97172.63;;;15.18;65.22
32251;BME280;41295;48.518;9.206;2023-07-22T03:42:31;97170.19;;;15.15;65.06
32251;BME280;41295;48.518;9.206;2023-07-22T03:44:33;97168.75;;;15.09;65.37
32251;BME280;41295;48.518;9.206;2023-07-22T03:46:37;97164.59;;;15.05;65.08
32251;BME280;41295;48.518;9.206;2023-07-22T03:48:40;97168.00;;;15.07;65.40
32251;BME280;41295;48.518;9.206;2023-07-22T03:50:42;97168.00;;;15.07;65.41
32251;BME280;41295;48.518;9.206;2023-07-22T03:52:46;97165.19;;;15.10;65.27
32251;BME280;41295;48.518;9.206;2023-07-22T03:54:49;97163.41;;;15.11;65.03
32251;BME280;41295;48.518;9.206;2023-07-22T03:56:52;97168.66;;;15.11;65.27
32251;BME280;41295;48.518;9.206;2023-07-22T03:58:54;97164.94;;;15.15;65.08
32251;BME280;41295;48.518;9.206;2023-07-22T04:00:57;97164.84;;;15.17;65.05
32251;BME280;41295;48.518;9.206;2023-07-22T04:03:00;97167.38;;;15.18;65.28
32251;BME280;41295;48.518;9.206;2023-07-22T04:05:03;97164.66;;;15.20;65.15
32251;BME280;41295;48.518;9.206;2023-07-22T04:07:05;97166.69;;;15.14;65.41
32251;BME280;41295;48.518;9.206;2023-07-22T04:09:10;97165.19;;;15.10;65.25
32251;BME280;41295;48.518;9.206;2023-07-22T04:11:12;97167.72;;;15.12;65.38
32251;BME280;41295;48.518;9.206;2023-07-22T04:13:16;97167.63;;;15.13;65.33
32251;BME280;41295;48.518;9.206;2023-07-22T04:15:17;97166.38;;;15.05;65.24
32251;BME280;41295;48.518;9.206;2023-07-22T04:17:20;97171.91;;;15.00;65.49
32251;BME280;41295;48.518;9.206;2023-07-22T04:19:23;97170.28;;;14.97;65.27
32251;BME280;41295;48.518;9.206;2023-07-22T04:21:25;97170.22;;;14.99;65.03
32251;BME280;41295;48.518;9.206;2023-07-22T04:23:28;97161.91;;;14.90;65.44
32251;BME280;41295;48.518;9.206;2023-07-22T04:25:38;97164.97;;;14.99;65.46
32251;BME280;41295;48.518;9.206;2023-07-22T04:27:41;97165.13;;;14.96;65.65
32251;BME280;41295;48.518;9.206;2023-07-22T04:29:44;97165.88;;;14.98;65.72
32251;BME280;41295;48.518;9.206;2023-07-22T04:31:47;97173.56;;;15.01;65.50
32251;BME280;41295;48.518;9.206;2023-07-22T04:33:49;97167.50;;;15.00;65.73
32251;BME280;41295;48.518;9.206;2023-07-22T04:35:53;97168.41;;;14.99;65.94
32251;BME280;41295;48.518;9.206;2023-07-22T04:37:56;97166.34;;;14.90;65.97
32251;BME280;41295;48.518;9.206;2023-07-22T04:39:58;97167.25;;;14.89;66.52
32251;BME280;41295;48.518;9.206;2023-07-22T04:42:03;97170.16;;;14.84;66.36
32251;BME280;41295;48.518;9.206;2023-07-22T04:44:06;97169.44;;;14.81;66.97
32251;BME280;41295;48.518;9.206;2023-07-22T04:46:09;97163.19;;;14.83;67.00
32251;BME280;41295;48.518;9.206;2023-07-22T04:48:11;97171.16;;;14.82;67.18
32251;BME280;41295;48.518;9.206;2023-07-22T04:50:14;97159.75;;;14.83;67.04
32251;BME280;41295;48.518;9.206;2023-07-22T04:52:17;97165.09;;;14.81;67.28
32251;BME280;41295;48.518;9.206;2023-07-22T04:54:19;97170.34;;;14.81;67.34
32251;BME280;41295;48.518;9.206;2023-07-22T04:56:22;97167.53;;;14.84;67.41
32251;BME280;41295;48.518;9.206;2023-07-22T04:58:25;97167.44;;;14.86;67.50
32251;BME280;41295;48.518;9.206;2023-07-22T05:00:28;97169.66;;;14.94;67.32
32251;BME280;41295;48.518;9.206;2023-07-22T05:02:30;97176.47;;;14.96;67.55
32251;BME280;41295;48.518;9.206;2023-07-22T05:04:33;97182.31;;;15.01;67.52
32251;BME280;41295;48.518;9.206;2023-07-22T05:06:36;97186.94;;;15.12;67.24
32251;BME280;41295;48.518;9.206;2023-07-22T05:08:38;97178.13;;;15.13;67.16
32251;BME280;41295;48.518;9.206;2023-07-22T05:10:41;97180.41;;;15.20;67.08
32251;BME280;41295;48.518;9.206;2023-07-22T05:12:43;97178.63;;;15.20;66.94
32251;BME280;41295;48.518;9.206;2023-07-22T05:14:48;97187.91;;;15.26;66.64
32251;BME280;41295;48.518;9.206;2023-07-22T05:16:49;97193.59;;;15.34;66.41
32251;BME280;41295;48.518;9.206;2023-07-22T05:18:52;97193.31;;;15.39;66.16
32251;BME280;41295;48.518;9.206;2023-07-22T05:20:54;97189.81;;;15.38;66.40
32251;BME280;41295;48.518;9.206;2023-07-22T05:22:57;97196.97;;;15.51;65.95
32251;BME280;41295;48.518;9.206;2023-07-22T05:25:00;97193.53;;;15.50;65.71
32251;BME280;41295;48.518;9.206;2023-07-22T05:27:03;97199.34;;;15.56;64.94
32251;BME280;41295;48.518;9.206;2023-07-22T05:29:10;97200.78;;;15.61;64.87
32251;BME280;41295;48.518;9.206;2023-07-22T05:31:15;97198.31;;;15.58;65.05
32251;BME280;41295;48.518;9.206;2023-07-22T05:33:18;97204.81;;;15.67;64.41
32251;BME280;41295;48.518;9.206;2023-07-22T05:35:21;97201.78;;;15.59;64.97
32251;BME280;41295;48.518;9.206;2023-07-22T05:37:24;97203.22;;;15.65;65.01
32251;BME280;41295;48.518;9.206;2023-07-22T05:39:27;97201.34;;;15.67;64.99
32251;BME280;41295;48.518;9.206;2023-07-22T05:41:30;97202.00;;;15.70;64.76
32251;BME280;41295;48.518;9.206;2023-07-22T05:43:32;97204.72;;;15.69;65.03
32251;BME280;41295;48.518;9.206;2023-07-22T05:45:35;97209.81;;;15.72;64.93
32251;BME280;41295;48.518;9.206;2023-07-22T05:47:39;97204.91;;;15.80;64.74
32251;BME280;41295;48.518;9.206;2023-07-22T05:49:42;97211.84;;;15.81;64.69
32251;BME280;41295;48.518;9.206;2023-07-22T05:51:44;97214.59;;;15.80;64.68
32251;BME280;41295;48.518;9.206;2023-07-22T05:53:47;97216.84;;;15.86;64.73
32251;BME280;41295;48.518;9.206;2023-07-22T05:55:50;97213.84;;;15.92;64.53
32251;BME280;41295;48.518;9.206;2023-07-22T05:57:52;97217.22;;;15.94;64.21
32251;BME280;41295;48.518;9.206;2023-07-22T05:59:54;97209.84;;;16.01;64.24
32251;BME280;41295;48.518;9.206;2023-07-22T06:02:08;97212.47;;;16.01;63.76
32251;BME280;41295;48.518;9.206;2023-07-22T06:04:13;97218.28;;;16.06;64.05
32251;BME280;41295;48.518;9.206;2023-07-22T06:06:16;97217.16;;;16.10;64.02
32251;BME280;41295;48.518;9.206;2023-07-22T06:08:17;97221.69;;;16.08;64.37
32251;BME280;41295;48.518;9.206;2023-07-22T06:10:20;97216.81;;;16.17;64.39
32251;BME280;41295;48.518;9.206;2023-07-22T06:12:22;97228.66;;;16.24;64.28
32251;BME280;41295;48.518;9.206;2023-07-22T06:14:24;97224.50;;;16.20;64.20
32251;BME280;41295;48.518;9.206;2023-07-22T06:16:27;97224.22;;;16.25;63.99
32251;BME280;41295;48.518;9.206;2023-07-22T06:18:30;97221.97;;;16.33;63.94
32251;BME280;41295;48.518;9.206;2023-07-22T06:20:34;97220.91;;;16.35;63.81
32251;BME280;41295;48.518;9.206;2023-07-22T06:22:37;97226.94;;;16.38;63.98
32251;BME280;41295;48.518;9.206;2023-07-22T06:24:39;97226.63;;;16.42;63.87
32251;BME280;41295;48.518;9.206;2023-07-22T06:26:42;97232.75;;;16.43;64.14
32251;BME280;41295;48.518;9.206;2023-07-22T06:28:45;97228.03;;;16.48;63.76
32251;BME280;41295;48.518;9.206;2023-07-22T06:30:47;97232.19;;;16.52;63.76
32251;BME280;41295;48.518;9.206;2023-07-22T06:32:49;97231.78;;;16.58;63.54
32251;BME280;41295;48.518;9.206;2023-07-22T06:34:51;97234.41;;;16.58;63.79
32251;BME280;41295;48.518;9.206;2023-07-22T06:36:55;97234.03;;;16.65;63.87
32251;BME280;41295;48.518;9.206;2023-07-22T06:38:58;97236.38;;;16.69;63.27
32251;BME280;41295;48.518;9.206;2023-07-22T06:41:00;97231.47;;;16.78;62.80
32251;BME280;41295;48.518;9.206;2023-07-22T06:43:02;97234.94;;;16.78;62.68
32251;BME280;41295;48.518;9.206;2023-07-22T06:45:06;97233.59;;;16.86;62.11
32251;BME280;41295;48.518;9.206;2023-07-22T06:47:08;97237.22;;;16.98;60.93
32251;BME280;41295;48.518;9.206;2023-07-22T06:49:11;97233.69;;;16.99;60.92
32251;BME280;41295;48.518;9.206;2023-07-22T06:51:14;97240.50;;;17.01;60.67
32251;BME280;41295;48.518;9.206;2023-07-22T06:53:18;97241.25;;;17.03;60.35
32251;BME280;41295;48.518;9.206;2023-07-22T06:55:19;97235.63;;;17.10;60.57
32251;BME280;41295;48.518;9.206;2023-07-22T06:57:22;97231.09;;;17.12;60.89
32251;BME280;41295;48.518;9.206;2023-07-22T06:59:27;97235.22;;;17.16;60.65
32251;BME280;41295;48.518;9.206;2023-07-22T07:01:28;97237.75;;;17.17;60.56
32251;BME280;41295;48.518;9.206;2023-07-22T07:03:31;97234.00;;;17.22;60.17
32251;BME280;41295;48.518;9.206;2023-07-22T07:05:34;97235.28;;;17.29;59.64
32251;BME280;41295;48.518;9.206;2023-07-22T07:07:37;97235.94;;;17.33;59.62
32251;BME280;41295;48.518;9.206;2023-07-22T07:09:42;97231.94;;;17.40;59.45
32251;BME280;41295;48.518;9.206;2023-07-22T07:11:44;97231.84;;;17.41;59.63
32251;BME280;41295;48.518;9.206;2023-07-22T07:13:47;97239.31;;;17.48;59.46
32251;BME280;41295;48.518;9.206;2023-07-22T07:15:50;97231.88;;;17.54;59.51
32251;BME280;41295;48.518;9.206;2023-07-22T07:17:52;97232.47;;;17.58;59.45
32251;BME280;41295;48.518;9.206;2023-07-22T07:19:55;97224.16;;;17.64;59.27
32251;BME280;41295;48.518;9.206;2023-07-22T07:21:58;97239.13;;;17.64;59.47
32251;BME280;41295;48.518;9.206;2023-07-22T07:24:00;97228.19;;;17.70;59.68
32251;BME280;41295;48.518;9.206;2023-07-22T07:26:04;97238.41;;;17.75;59.95
32251;BME280;41295;48.518;9.206;2023-07-22T07:28:07;97236.31;;;17.80;59.33
32251;BME280;41295;48.518;9.206;2023-07-22T07:30:10;97228.81;;;17.87;58.97
32251;BME280;41295;48.518;9.206;2023-07-22T07:32:13;97232.72;;;17.94;58.95
32251;BME280;41295;48.518;9.206;2023-07-22T07:34:15;97237.91;;;18.09;58.12
32251;BME280;41295;48.518;9.206;2023-07-22T07:36:18;97228.94;;;18.11;57.09
32251;BME280;41295;48.518;9.206;2023-07-22T07:38:21;97234.88;;;18.15;57.34
32251;BME280;41295;48.518;9.206;2023-07-22T07:40:24;97240.88;;;18.17;57.53
32251;BME280;41295;48.518;9.206;2023-07-22T07:42:29;97235.28;;;18.22;57.82
32251;BME280;41295;48.518;9.206;2023-07-22T07:44:32;97231.69;;;18.23;58.07
32251;BME280;41295;48.518;9.206;2023-07-22T07:46:34;97235.59;;;18.30;58.10
32251;BME280;41295;48.518;9.206;2023-07-22T07:48:37;97237.06;;;18.34;58.30
32251;BME280;41295;48.518;9.206;2023-07-22T07:50:39;97238.44;;;18.40;58.31
32251;BME280;41295;48.518;9.206;2023-07-22T07:52:41;97233.28;;;18.38;57.29
32251;BME280;41295;48.518;9.206;2023-07-22T07:54:44;97230.94;;;18.47;56.51
32251;BME280;41295;48.518;9.206;2023-07-22T07:56:46;97237.09;;;18.72;55.01
32251;BME280;41295;48.518;9.206;2023-07-22T07:58:53;97241.53;;;18.71;54.69
32251;BME280;41295;48.518;9.206;2023-07-22T08:00:56;97228.78;;;18.65;55.10
32251;BME280;41295;48.518;9.206;2023-07-22T08:02:58;97219.16;;;18.64;55.00
32251;BME280;41295;48.518;9.206;2023-07-22T08:05:01;97232.22;;;18.79;55.11
32251;BME280;41295;48.518;9.206;2023-07-22T08:07:06;97225.88;;;18.81;55.08
32251;BME280;41295;48.518;9.206;2023-07-22T08:09:09;97225.53;;;18.86;54.35
32251;BME280;41295;48.518;9.206;2023-07-22T08:11:13;97228.06;;;18.87;54.17
32251;BME280;41295;48.518;9.206;2023-07-22T08:13:16;97224.88;;;19.20;53.75
32251;BME280;41295;48.518;9.206;2023-07-22T08:15:19;97226.81;;;19.05;54.23
32251;BME280;41295;48.518;9.206;2023-07-22T08:17:22;97228.59;;;19.17;54.08
32251;BME280;41295;48.518;9.206;2023-07-22T08:19:24;97224.50;;;19.13;54.15
32251;BME280;41295;48.518;9.206;2023-07-22T08:21:27;97227.25;;;19.11;53.98
32251;BME280;41295;48.518;9.206;2023-07-22T08:23:30;97229.56;;;19.16;53.19
32251;BME280;41295;48.518;9.206;2023-07-22T08:25:33;97237.03;;;19.22;52.11
32251;BME280;41295;48.518;9.206;2023-07-22T08:27:35;97219.97;;;19.27;50.59
32251;BME280;41295;48.518;9.206;2023-07-22T08:29:38;97225.66;;;19.33;49.84
32251;BME280;41295;48.518;9.206;2023-07-22T08:31:42;97230.94;;;19.33;50.33
32251;BME280;41295;48.518;9.206;2023-07-22T08:33:45;97219.69;;;19.43;49.82
32251;BME280;41295;48.518;9.206;2023-07-22T08:35:47;97229.41;;;19.42;49.63
32251;BME280;41295;48.518;9.206;2023-07-22T08:37:51;97227.16;;;19.49;49.52
32251;BME280;41295;48.518;9.206;2023-07-22T08:39:55;97223.66;;;19.49;49.89
32251;BME280;41295;48.518;9.206;2023-07-22T08:41:58;97213.84;;;19.62;47.99
32251;BME280;41295;48.518;9.206;2023-07-22T08:44:07;97221.16;;;19.58;48.68
32251;BME280;41295;48.518;9.206;2023-07-22T08:46:13;97224.34;;;19.75;47.61
32251;BME280;41295;48.518;9.206;2023-07-22T08:48:21;97226.25;;;19.73;47.74
32251;BME280;41295;48.518;9.206;2023-07-22T08:50:27;97224.34;;;19.75;48.49
32251;BME280;41295;48.518;9.206;2023-07-22T08:52:30;97224.56;;;19.83;47.45
32251;BME280;41295;48.518;9.206;2023-07-22T08:54:34;97224.56;;;19.83;46.65
32251;BME280;41295;48.518;9.206;2023-07-22T08:56:38;97219.91;;;19.87;47.12
32251;BME280;41295;48.518;9.206;2023-07-22T08:58:41;97222.66;;;19.86;47.28
32251;BME280;41295;48.518;9.206;2023-07-22T09:00:44;97223.88;;;19.93;47.85
32251;BME280;41295;48.518;9.206;2023-07-22T09:02:48;97209.72;;;19.94;47.84
32251;BME280;41295;48.518;9.206;2023-07-22T09:04:52;97214.03;;;20.06;47.48
32251;BME280;41295;48.518;9.206;2023-07-22T09:06:55;97211.19;;;20.10;46.79
32251;BME280;41295;48.518;9.206;2023-07-22T09:08:58;97211.78;;;20.13;46.46
32251;BME280;41295;48.518;9.206;2023-07-22T09:11:02;97213.47;;;20.14;46.70
32251;BME280;41295;48.518;9.206;2023-07-22T09:13:05;97205.16;;;20.19;46.61
32251;BME280;41295;48.518;9.206;2023-07-22T09:15:09;97207.94;;;20.29;46.26
32251;BME280;41295;48.518;9.206;2023-07-22T09:17:13;97213.09;;;20.30;45.83
32251;BME280;41295;48.518;9.206;2023-07-22T09:19:15;97215.16;;;20.38;46.04
32251;BME280;41295;48.518;9.206;2023-07-22T09:21:19;97208.16;;;20.37;44.97
32251;BME280;41295;48.518;9.206;2023-07-22T09:23:32;97201.44;;;20.33;45.53
32251;BME280;41295;48.518;9.206;2023-07-22T09:25:34;97197.59;;;20.26;45.24
32251;BME280;41295;48.518;9.206;2023-07-22T09:27:37;97200.13;;;20.27;44.92
32251;BME280;41295;48.518;9.206;2023-07-22T09:29:40;97189.88;;;20.34;44.58
32251;BME280;41295;48.518;9.206;2023-07-22T09:31:49;97193.47;;;20.45;43.95
32251;BME280;41295;48.518;9.206;2023-07-22T09:33:53;97200.19;;;20.60;42.20
32251;BME280;41295;48.518;9.206;2023-07-22T09:35:56;97197.25;;;20.75;41.94
32251;BME280;41295;48.518;9.206;2023-07-22T09:38:00;97190.16;;;20.75;41.86
32251;BME280;41295;48.518;9.206;2023-07-22T09:40:13;97176.91;;;20.75;41.58
32251;BME280;41295;48.518;9.206;2023-07-22T09:42:23;97185.53;;;20.89;42.69
32251;BME280;41295;48.518;9.206;2023-07-22T09:44:29;97177.47;;;20.90;42.31
32251;BME280;41295;48.518;9.206;2023-07-22T09:46:32;97188.31;;;20.99;42.87
32251;BME280;41295;48.518;9.206;2023-07-22T09:48:40;97183.09;;;21.09;42.89
32251;BME280;41295;48.518;9.206;2023-07-22T09:50:43;97186.19;;;21.14;42.50
32251;BME280;41295;48.518;9.206;2023-07-22T09:52:47;97177.88;;;21.19;41.81
32251;BME280;41295;48.518;9.206;2023-07-22T09:54:50;97179.25;;;21.34;43.03
32251;BME280;41295;48.518;9.206;2023-07-22T09:56:53;97182.53;;;21.48;42.41
32251;BME280;41295;48.518;9.206;2023-07-22T09:58:58;97173.94;;;21.56;42.42
32251;BME280;41295;48.518;9.206;2023-07-22T10:01:01;97176.28;;;21.70;40.92
32251;BME280;41295;48.518;9.206;2023-07-22T10:03:09;97174.66;;;21.79;40.38
32251;BME280;41295;48.518;9.206;2023-07-22T10:05:18;97182.09;;;21.85;39.79
32251;BME280;41295;48.518;9.206;2023-07-22T10:07:21;97186.34;;;21.98;38.48
32251;BME280;41295;48.518;9.206;2023-07-22T10:09:27;97176.31;;;22.02;38.51
32251;BME280;41295;48.518;9.206;2023-07-22T10:11:34;97172.00;;;22.10;38.67
32251;BME280;41295;48.518;9.206;2023-07-22T10:13:40;97171.31;;;22.08;38.60
32251;BME280;41295;48.518;9.206;2023-07-22T10:15:45;97171.19;;;22.10;39.28
32251;BME280;41295;48.518;9.206;2023-07-22T10:17:48;97168.41;;;22.11;39.79
32251;BME280;41295;48.518;9.206;2023-07-22T10:19:52;97160.88;;;22.17;40.59
32251;BME280;41295;48.518;9.206;2023-07-22T10:21:54;97168.56;;;22.20;41.13
32251;BME280;41295;48.518;9.206;2023-07-22T10:23:58;97172.88;;;22.21;41.04
32251;BME280;41295;48.518;9.206;2023-07-22T10:26:05;97191.81;;;22.28;39.25
32251;BME280;41295;48.518;9.206;2023-07-22T10:28:10;97161.75;;;22.27;39.55
32251;BME280;41295;48.518;9.206;2023-07-22T10:30:16;97163.59;;;22.37;40.18
32251;BME280;41295;48.518;9.206;2023-07-22T10:32:19;97175.22;;;22.55;40.12
32251;BME280;41295;48.518;9.206;2023-07-22T10:34:23;97165.09;;;22.70;40.24
32251;BME280;41295;48.518;9.206;2023-07-22T10:36:29;97166.09;;;22.79;39.48
32251;BME280;41295;48.518;9.206;2023-07-22T10:38:32;97156.59;;;22.87;38.92
32251;BME280;41295;48.518;9.206;2023-07-22T10:40:45;97156.28;;;22.90;39.06
32251;BME280;41295;48.518;9.206;2023-07-22T10:42:52;97151.13;;;22.88;38.88
32251;BME280;41295;48.518;9.206;2023-07-22T10:45:00;97159.94;;;22.89;39.20
32251;BME280;41295;48.518;9.206;2023-07-22T10:47:03;97158.53;;;22.85;39.29
32251;BME280;41295;48.518;9.206;2023-07-22T10:49:13;97164.13;;;22.81;39.44
32251;BME280;41295;48.518;9.206;2023-07-22T10:51:17;97164.81;;;22.74;39.50
32251;BME280;41295;48.518;9.206;2023-07-22T10:53:28;97155.16;;;22.73;39.37
32251;BME280;41295;48.518;9.206;2023-07-22T10:55:31;97153.91;;;22.67;39.71